Raymond Le Roux

Recruteur en chef - Valenciennes
4 Mars 2027
Jeudi
Processus

Personnalité

Adaptabilité (3) Ambition (13) Controverse (10) Loyauté (3) Pression (4) Professionnalisme (11) Sportivité (13) Tempérament (7)

Profil

Style d'entraînement Démocratique
Diplôme Continental B
Détermination 5
Gestion des joueurs 7
Motivation 11
Discipline 5
Satisfaction professionnelle
81%
Fatigue
0%
Rôle Recruteur en chef
Salaire 68.8K p/s
Contrat 14.03.2030

Performance

Comportement Bon
Efficacité de l'entraînement
32%
Développement des joueurs
25%
Prévention des blessures
30%
Mise en place tactique
40%

Événements récents

A évalué un joueur maintenant
A participé à une réunion de recrutement maintenant
A recommandé une cible de transfert maintenant
A participé à une réunion de recrutement 7j
A recommandé une cible de transfert 7j
A recommandé une cible de transfert 7j
A recommandé une cible de transfert 14j
A recommandé une cible de transfert 14j

Suivi en cours

76
Joueur Club Statut Capacité Confiance Observé Dernière observation Dernier vote
Dylan Nandín Arouca Actif 119 / 111 40% 1 03.03.2027 -
Harry Cornick AFC Wimbledon Actif 112 / 102 40% 1 03.03.2027 -
Peter Itodo Metalist Actif 107 / 124 40% 1 03.03.2027 -
Ismail Azzaoui Lokeren Actif 108 / 106 40% 2 01.03.2027 -
Mika Lusitânia Lourosa Actif 103 / 108 40% 1 01.03.2027 -
Zayd El Kandoussi Lokeren Actif 115 / 107 40% 1 01.03.2027 -
Pladi Nzinga-Pambani Olympique de Marseille Actif 89 / 90 72% 1 25.01.2027 Approuver
Lewis Freestone Stevenage Actif 108 / 96 40% 1 17.01.2027 -
Dylan Ourega Westerlo Actif 106 / 121 40% 1 17.01.2027 -
Lebogang Erasmus Platinum Stars Actif 108 / 100 40% 1 16.01.2027 -
Gift Zwane Platinum Stars Actif 113 / 107 40% 1 16.01.2027 -
Alejandro Gómez Tijuana Actif 123 / 108 40% 2 15.01.2027 -
Leo Fuhr Hjelde KV Mechelen Actif 111 / 128 40% 1 15.01.2027 -
Aarón Mejía Tijuana Actif 122 / 129 40% 1 15.01.2027 -
Doğucan Haspolat Westerlo Actif 117 / 114 40% 2 14.01.2027 -
Gora Diouf KV Mechelen Actif 112 / 115 40% 1 14.01.2027 -
Thalente Mbatha Orlando Pirates Actif 122 / 107 40% 1 14.01.2027 -
Goodman Mosele Chippa United Actif 112 / 99 40% 1 13.01.2027 -
Ivan Edson Veracruz Actif 134 / 116 40% 1 13.01.2027 -
Yassine Khalifi Charleroi Actif 105 / 114 40% 2 12.01.2027 -
Paulo Victor Queretaro Actif 124 / 126 40% 1 12.01.2027 -
Denis Renault Chamois Niortais Actif 108 / 107 72% 1 11.01.2027 Approuver
Jakob Kiilerich Zulte Waregem Actif 115 / 124 40% 1 11.01.2027 -
Siyanda Msani University of Pretoria Actif 100 / 112 40% 1 11.01.2027 -
Anton Tanghe Zulte Waregem Actif 112 / 117 40% 1 11.01.2027 -
Enzo Koffi Le Havre AC Refusé 108 / 104 72% 1 06.01.2027 Refuser
Seny Koumbassa Toulouse FC Refusé 91 / 113 72% 1 31.08.2026 Refuser
Maksim Kireev KV Mechelen Actif 118 / 131 40% 3 29.08.2026 -
Keano Vanrafelghem KV Mechelen Actif 109 / 104 40% 2 29.08.2026 -
Robert-Jan Vanwesemael Sint-Truiden Actif 115 / 110 40% 1 29.08.2026 -
Ramiro Carrera Lanús Actif 120 / 115 40% 1 26.08.2026 -
Miguel Almirón Atlanta United FC Actif 134 / 139 40% 1 26.08.2026 -
Léandre Kuavita Waasland-Beveren Actif 117 / 113 40% 3 24.08.2026 -
Juan Giménez Rosario Central Actif 119 / 125 40% 1 24.08.2026 -
Cemran Dansin Orlando Pirates Actif 110 / 119 40% 1 24.08.2026 -
Santiago Fernández Talleres Actif 127 / 131 40% 1 24.08.2026 -
Thibault Vlietinck OH Leuven Actif 117 / 120 40% 3 23.08.2026 -
Youssef Challouk KAA Gent Actif 107 / 117 40% 1 23.08.2026 -
Kaito Matsuzawa Sint-Truiden Actif 107 / 116 40% 2 21.08.2026 -
William Balikwisha OH Leuven Actif 115 / 114 40% 1 20.08.2026 -
Nikola Mituljikić Zulte Waregem Actif 96 / 103 40% 2 19.08.2026 -
Bradel Kiwa Monaco Actif 106 / 111 40% 1 19.08.2026 -
Lucas Agazzi Defensor Sporting Actif 126 / 123 40% 1 19.08.2026 -
Bill Antonio KV Mechelen Actif 121 / 117 40% 1 19.08.2026 -
Tommy St. Jago KV Mechelen Actif 116 / 129 40% 1 18.08.2026 -
Thorgan Nainggolan Mouscron Actif 109 / 110 40% 1 17.08.2026 -
Ali Maamar Anderlecht Actif 105 / 102 40% 1 17.08.2026 -
Daniel Falcao La Equidad Actif 109 / 112 40% 1 17.08.2026 -
Noah Rwabuzisoni Club Brugge Actif 78 / 85 40% 1 16.08.2026 -
Teo Rodríguez Pagano San Lorenzo Actif 107 / 122 40% 1 16.08.2026 -
Thérence Koudou KV Mechelen Actif 102 / 101 40% 1 16.08.2026 -
Daniel Herrera Cortulua Actif 102 / 109 40% 1 14.08.2026 -
Matisse Samoise KAA Gent Actif 119 / 122 40% 1 14.08.2026 -
Dedryck Chadli Mouscron Actif 118 / 128 40% 1 14.08.2026 -
Sergio Oregel Chicago Fire Actif 108 / 119 40% 1 11.08.2026 -
Steeven Assengue Standard Liege Actif 89 / 106 40% 1 11.08.2026 -
Juan Pablo De la Reta Maipú Actif 117 / 117 40% 1 11.08.2026 -
Fredrik Hammar KV Mechelen Actif 109 / 115 40% 1 09.08.2026 -
Jakob Glesnes LA Galaxy Actif 130 / 130 40% 1 09.08.2026 -
Benoît Nyssen Zulte Waregem Actif 111 / 110 40% 1 09.08.2026 -
Laurent Lemoine Zulte Waregem Actif 112 / 104 40% 1 09.08.2026 -
Matties Volckaert KAA Gent Actif 109 / 102 40% 1 07.08.2026 -
Matte Smets Racing Genk Actif 122 / 129 40% 1 07.08.2026 -
Łukasz Łakomy OH Leuven Actif 112 / 118 40% 1 06.08.2026 -
Eliás Montiel Pachuca Actif 138 / 136 40% 1 06.08.2026 -
Abdoulaye Sissako Sint-Truiden Actif 114 / 105 40% 1 06.08.2026 -
Joris Kayembe Racing Genk Actif 124 / 111 40% 1 05.08.2026 -
Noah Adedeji-Sternberg Racing Genk Actif 116 / 124 40% 1 05.08.2026 -
Bryang Kayo OH Leuven Actif 118 / 123 40% 1 05.08.2026 -
Gilles Dewaele KV Kortrijk Actif 121 / 111 40% 1 05.08.2026 -
Ryan Merlen Sint-Truiden Actif 104 / 116 40% 1 05.08.2026 -
Takuya Ogiwara Urawa Reds Actif 125 / 130 40% 1 05.08.2026 -
Thomas Claes Zulte Waregem Actif 114 / 115 40% 1 03.08.2026 -
Tobias Mohr Standard Liege Actif 121 / 111 40% 1 03.08.2026 -
Farès Bahlouli Petrolul Actif 105 / 92 40% 1 03.08.2026 -
Chris Lokesa Waasland-Beveren Actif 112 / 125 40% 1 02.08.2026 -